Disclaimer

Please do not use the information listed here in-flight or in-navigation, as they are not provided to us by the airports but are provided by volunteers, so they might be outdated.

Search


Regions


Airport information page

No radio frequency information is available.

Airport informations:
Latitude: 36° 15' 57.99" N
Longitude: 120° 22' 27.97" E
Elevation: 33 feet - 10 meters
Operating hours: Remarks
Operating agency: Civil government, landing fees and diplomatic clearance may be required
Timezone: UTC+8
Fuel: Jet fuel avaiable but type is unknown.

Runway information:
17/35 - 11155 x 148 feet< - >3400 x 45 meters

Recent METARs:
ZSQD 151100Z 27001MPS 7000 BKN040 14/09 Q1024 NOSIG
ZSQD 151100Z 27001MPS 7000 BKN040 14/09 Q1024 NOSIG
ZSQD 151200Z 29001MPS 7000 BKN050 13/09 Q1024 NOSIG

Airport on the map: